Harg, Missouri
Current Conditions -  °F | °C
As of 7:54 PM on Friday 24 Oct 2014 (Local Time) from KCOU Reporting Station
Clear Clear  
Wind Chill: 66°   Ceiling: Unl
Heat Index: 66°   Visibility: 10mi
Dew Point: 59°   Wind: 7mph
Humidity: 78%   Direction: 190°S
Pressure: 29.99"   Gusts: NA
Location:  38.8994°N, 92.2391°W
Report Text: KCOU 250054Z 19006KT 10SM CLR 19/15 A2999 RMK AO2 SLP151 T01890150
Loading
Personal Weather Stations






























Interactive Weather Map
Tropical Storm Tracking
New forecast layout! Learn more

10-Day Weather Forecast

Advertisements
Track Severe Weather on mobile